sensor_id;sensor_type;location;lat;lon;timestamp;P1;durP1;ratioP1;P2;durP2;ratioP2
51179;SDS011;37243;49.814;8.652;2023-02-28T00:01:29;0.93;;;0.73;;
51179;SDS011;37243;49.814;8.652;2023-02-28T00:03:57;0.73;;;0.73;;
51179;SDS011;37243;49.814;8.652;2023-02-28T00:06:28;1.42;;;0.80;;
51179;SDS011;37243;49.814;8.652;2023-02-28T00:08:57;1.55;;;0.80;;
51179;SDS011;37243;49.814;8.652;2023-02-28T00:11:25;1.27;;;0.90;;
51179;SDS011;37243;49.814;8.652;2023-02-28T00:13:53;1.40;;;0.95;;
51179;SDS011;37243;49.814;8.652;2023-02-28T00:16:22;2.08;;;0.93;;
51179;SDS011;37243;49.814;8.652;2023-02-28T00:18:50;1.38;;;0.90;;
51179;SDS011;37243;49.814;8.652;2023-02-28T00:21:18;2.20;;;0.90;;
51179;SDS011;37243;49.814;8.652;2023-02-28T00:23:50;0.82;;;0.80;;
51179;SDS011;37243;49.814;8.652;2023-02-28T00:26:18;0.75;;;0.75;;
51179;SDS011;37243;49.814;8.652;2023-02-28T00:28:46;2.35;;;0.80;;
51179;SDS011;37243;49.814;8.652;2023-02-28T00:31:15;0.60;;;0.60;;
51179;SDS011;37243;49.814;8.652;2023-02-28T00:33:43;1.38;;;1.00;;
51179;SDS011;37243;49.814;8.652;2023-02-28T00:36:11;0.85;;;0.60;;
51179;SDS011;37243;49.814;8.652;2023-02-28T00:38:40;1.33;;;0.82;;
51179;SDS011;37243;49.814;8.652;2023-02-28T00:41:11;0.80;;;0.80;;
51179;SDS011;37243;49.814;8.652;2023-02-28T00:43:39;0.77;;;0.60;;
51179;SDS011;37243;49.814;8.652;2023-02-28T00:46:08;1.70;;;1.02;;
51179;SDS011;37243;49.814;8.652;2023-02-28T00:48:36;3.38;;;0.80;;
51179;SDS011;37243;49.814;8.652;2023-02-28T00:51:04;1.38;;;0.60;;
51179;SDS011;37243;49.814;8.652;2023-02-28T00:53:33;3.22;;;0.85;;
51179;SDS011;37243;49.814;8.652;2023-02-28T00:56:01;0.73;;;0.63;;
51179;SDS011;37243;49.814;8.652;2023-02-28T00:58:33;0.85;;;0.80;;
51179;SDS011;37243;49.814;8.652;2023-02-28T01:01:01;0.80;;;0.80;;
51179;SDS011;37243;49.814;8.652;2023-02-28T01:03:30;0.95;;;0.70;;
51179;SDS011;37243;49.814;8.652;2023-02-28T01:05:59;0.85;;;0.63;;
51179;SDS011;37243;49.814;8.652;2023-02-28T01:08:27;3.80;;;0.70;;
51179;SDS011;37243;49.814;8.652;2023-02-28T01:10:55;0.70;;;0.70;;
51179;SDS011;37243;49.814;8.652;2023-02-28T01:13:24;2.15;;;0.80;;
51179;SDS011;37243;49.814;8.652;2023-02-28T01:15:55;0.82;;;0.82;;
51179;SDS011;37243;49.814;8.652;2023-02-28T01:18:24;1.55;;;0.63;;
51179;SDS011;37243;49.814;8.652;2023-02-28T01:20:53;0.80;;;0.80;;
51179;SDS011;37243;49.814;8.652;2023-02-28T01:23:22;0.75;;;0.75;;
51179;SDS011;37243;49.814;8.652;2023-02-28T01:25:51;2.72;;;0.80;;
51179;SDS011;37243;49.814;8.652;2023-02-28T01:28:20;1.23;;;0.85;;
51179;SDS011;37243;49.814;8.652;2023-02-28T01:30:48;0.70;;;0.70;;
51179;SDS011;37243;49.814;8.652;2023-02-28T01:33:20;0.80;;;0.80;;
51179;SDS011;37243;49.814;8.652;2023-02-28T01:35:48;1.35;;;0.80;;
51179;SDS011;37243;49.814;8.652;2023-02-28T01:38:16;1.33;;;0.95;;
51179;SDS011;37243;49.814;8.652;2023-02-28T01:40:44;1.30;;;0.70;;
51179;SDS011;37243;49.814;8.652;2023-02-28T01:43:16;0.70;;;0.50;;
51179;SDS011;37243;49.814;8.652;2023-02-28T01:45:49;0.80;;;0.80;;
51179;SDS011;37243;49.814;8.652;2023-02-28T01:48:20;1.20;;;1.00;;
51179;SDS011;37243;49.814;8.652;2023-02-28T01:50:53;1.75;;;0.90;;
51179;SDS011;37243;49.814;8.652;2023-02-28T01:53:31;0.77;;;0.77;;
51179;SDS011;37243;49.814;8.652;2023-02-28T01:56:02;1.15;;;0.90;;
51179;SDS011;37243;49.814;8.652;2023-02-28T01:58:33;0.60;;;0.60;;
51179;SDS011;37243;49.814;8.652;2023-02-28T02:01:02;1.95;;;0.80;;
51179;SDS011;37243;49.814;8.652;2023-02-28T02:03:34;0.82;;;0.82;;
51179;SDS011;37243;49.814;8.652;2023-02-28T02:06:03;1.42;;;0.82;;
51179;SDS011;37243;49.814;8.652;2023-02-28T02:08:32;0.60;;;0.52;;
51179;SDS011;37243;49.814;8.652;2023-02-28T02:11:01;2.95;;;0.90;;
51179;SDS011;37243;49.814;8.652;2023-02-28T02:13:34;2.92;;;0.77;;
51179;SDS011;37243;49.814;8.652;2023-02-28T02:16:21;0.60;;;0.60;;
51179;SDS011;37243;49.814;8.652;2023-02-28T02:19:04;1.52;;;0.80;;
51179;SDS011;37243;49.814;8.652;2023-02-28T02:22:02;2.05;;;0.80;;
51179;SDS011;37243;49.814;8.652;2023-02-28T02:24:57;1.67;;;0.70;;
51179;SDS011;37243;49.814;8.652;2023-02-28T02:27:42;1.27;;;1.10;;
51179;SDS011;37243;49.814;8.652;2023-02-28T02:33:24;0.80;;;0.80;;
51179;SDS011;37243;49.814;8.652;2023-02-28T02:36:07;0.80;;;0.80;;
51179;SDS011;37243;49.814;8.652;2023-02-28T02:38:42;0.77;;;0.77;;
51179;SDS011;37243;49.814;8.652;2023-02-28T02:41:17;0.77;;;0.70;;
51179;SDS011;37243;49.814;8.652;2023-02-28T02:43:52;0.65;;;0.65;;
51179;SDS011;37243;49.814;8.652;2023-02-28T02:46:26;0.70;;;0.70;;
51179;SDS011;37243;49.814;8.652;2023-02-28T02:49:00;1.13;;;0.82;;
51179;SDS011;37243;49.814;8.652;2023-02-28T02:51:35;0.90;;;0.90;;
51179;SDS011;37243;49.814;8.652;2023-02-28T02:54:06;0.70;;;0.70;;
51179;SDS011;37243;49.814;8.652;2023-02-28T02:56:40;0.75;;;0.75;;
51179;SDS011;37243;49.814;8.652;2023-02-28T02:59:11;0.77;;;0.77;;
51179;SDS011;37243;49.814;8.652;2023-02-28T03:01:45;1.58;;;0.70;;
51179;SDS011;37243;49.814;8.652;2023-02-28T03:04:16;1.58;;;0.60;;
51179;SDS011;37243;49.814;8.652;2023-02-28T03:06:49;0.93;;;0.93;;
51179;SDS011;37243;49.814;8.652;2023-02-28T03:09:19;1.00;;;0.98;;
51179;SDS011;37243;49.814;8.652;2023-02-28T03:11:48;0.60;;;0.60;;
51179;SDS011;37243;49.814;8.652;2023-02-28T03:14:25;1.65;;;0.75;;
51179;SDS011;37243;49.814;8.652;2023-02-28T03:20:04;0.65;;;0.55;;
51179;SDS011;37243;49.814;8.652;2023-02-28T03:22:48;0.60;;;0.60;;
51179;SDS011;37243;49.814;8.652;2023-02-28T03:25:27;1.23;;;0.73;;
51179;SDS011;37243;49.814;8.652;2023-02-28T03:28:04;0.70;;;0.70;;
51179;SDS011;37243;49.814;8.652;2023-02-28T03:30:39;1.75;;;0.85;;
51179;SDS011;37243;49.814;8.652;2023-02-28T03:33:19;3.28;;;0.60;;
51179;SDS011;37243;49.814;8.652;2023-02-28T03:35:52;1.40;;;0.60;;
51179;SDS011;37243;49.814;8.652;2023-02-28T03:38:27;0.95;;;0.70;;
51179;SDS011;37243;49.814;8.652;2023-02-28T03:41:00;1.55;;;0.75;;
51179;SDS011;37243;49.814;8.652;2023-02-28T03:43:34;1.63;;;0.70;;
51179;SDS011;37243;49.814;8.652;2023-02-28T03:46:09;1.75;;;0.70;;
51179;SDS011;37243;49.814;8.652;2023-02-28T03:48:40;0.57;;;0.57;;
51179;SDS011;37243;49.814;8.652;2023-02-28T03:51:14;1.35;;;0.70;;
51179;SDS011;37243;49.814;8.652;2023-02-28T03:53:49;0.60;;;0.60;;
51179;SDS011;37243;49.814;8.652;2023-02-28T03:56:21;0.85;;;0.80;;
51179;SDS011;37243;49.814;8.652;2023-02-28T03:58:53;0.55;;;0.55;;
51179;SDS011;37243;49.814;8.652;2023-02-28T04:01:30;1.45;;;0.80;;
51179;SDS011;37243;49.814;8.652;2023-02-28T04:04:03;0.65;;;0.65;;
51179;SDS011;37243;49.814;8.652;2023-02-28T04:06:33;0.60;;;0.60;;
51179;SDS011;37243;49.814;8.652;2023-02-28T04:09:04;0.68;;;0.68;;
51179;SDS011;37243;49.814;8.652;2023-02-28T04:11:36;0.70;;;0.70;;
51179;SDS011;37243;49.814;8.652;2023-02-28T04:14:06;1.38;;;0.73;;
51179;SDS011;37243;49.814;8.652;2023-02-28T04:16:37;0.50;;;0.50;;
51179;SDS011;37243;49.814;8.652;2023-02-28T04:19:07;1.27;;;0.88;;
51179;SDS011;37243;49.814;8.652;2023-02-28T04:21:37;0.80;;;0.80;;
51179;SDS011;37243;49.814;8.652;2023-02-28T04:24:10;0.70;;;0.70;;
51179;SDS011;37243;49.814;8.652;2023-02-28T04:26:40;1.92;;;0.77;;
51179;SDS011;37243;49.814;8.652;2023-02-28T04:29:11;0.70;;;0.70;;
51179;SDS011;37243;49.814;8.652;2023-02-28T04:31:40;0.60;;;0.60;;
51179;SDS011;37243;49.814;8.652;2023-02-28T04:34:08;0.80;;;0.80;;
51179;SDS011;37243;49.814;8.652;2023-02-28T04:36:36;0.70;;;0.70;;
51179;SDS011;37243;49.814;8.652;2023-02-28T04:39:04;0.60;;;0.60;;
51179;SDS011;37243;49.814;8.652;2023-02-28T04:41:37;0.52;;;0.52;;
51179;SDS011;37243;49.814;8.652;2023-02-28T04:44:05;0.50;;;0.50;;
51179;SDS011;37243;49.814;8.652;2023-02-28T04:46:33;0.50;;;0.50;;
51179;SDS011;37243;49.814;8.652;2023-02-28T04:49:02;0.60;;;0.60;;
51179;SDS011;37243;49.814;8.652;2023-02-28T04:51:31;1.02;;;0.80;;
51179;SDS011;37243;49.814;8.652;2023-02-28T04:53:59;1.42;;;0.60;;
51179;SDS011;37243;49.814;8.652;2023-02-28T04:56:27;0.60;;;0.60;;
51179;SDS011;37243;49.814;8.652;2023-02-28T04:58:58;0.70;;;0.70;;
51179;SDS011;37243;49.814;8.652;2023-02-28T05:01:27;0.70;;;0.70;;
51179;SDS011;37243;49.814;8.652;2023-02-28T05:03:58;1.17;;;0.52;;
51179;SDS011;37243;49.814;8.652;2023-02-28T05:06:27;0.82;;;0.50;;
51179;SDS011;37243;49.814;8.652;2023-02-28T05:08:57;0.57;;;0.57;;
51179;SDS011;37243;49.814;8.652;2023-02-28T05:11:26;0.80;;;0.70;;
51179;SDS011;37243;49.814;8.652;2023-02-28T05:14:02;0.70;;;0.70;;
51179;SDS011;37243;49.814;8.652;2023-02-28T05:16:32;0.70;;;0.70;;
51179;SDS011;37243;49.814;8.652;2023-02-28T05:19:00;0.60;;;0.60;;
51179;SDS011;37243;49.814;8.652;2023-02-28T05:21:30;1.40;;;0.60;;
51179;SDS011;37243;49.814;8.652;2023-02-28T05:24:00;0.65;;;0.65;;
51179;SDS011;37243;49.814;8.652;2023-02-28T05:26:31;0.60;;;0.60;;
51179;SDS011;37243;49.814;8.652;2023-02-28T05:29:05;1.70;;;0.77;;
51179;SDS011;37243;49.814;8.652;2023-02-28T05:31:34;0.68;;;0.68;;
51179;SDS011;37243;49.814;8.652;2023-02-28T05:34:04;2.55;;;0.82;;
51179;SDS011;37243;49.814;8.652;2023-02-28T05:36:32;0.65;;;0.65;;
51179;SDS011;37243;49.814;8.652;2023-02-28T05:39:01;1.55;;;1.02;;
51179;SDS011;37243;49.814;8.652;2023-02-28T05:41:29;2.72;;;0.80;;
51179;SDS011;37243;49.814;8.652;2023-02-28T05:43:57;2.00;;;1.05;;
51179;SDS011;37243;49.814;8.652;2023-02-28T05:46:28;3.50;;;0.82;;
51179;SDS011;37243;49.814;8.652;2023-02-28T05:48:57;1.75;;;1.10;;
51179;SDS011;37243;49.814;8.652;2023-02-28T05:51:25;5.10;;;1.08;;
51179;SDS011;37243;49.814;8.652;2023-02-28T05:53:54;6.32;;;1.40;;
51179;SDS011;37243;49.814;8.652;2023-02-28T05:56:22;6.63;;;1.35;;
51179;SDS011;37243;49.814;8.652;2023-02-28T05:58:50;3.65;;;1.50;;
51179;SDS011;37243;49.814;8.652;2023-02-28T06:01:19;5.20;;;1.52;;
51179;SDS011;37243;49.814;8.652;2023-02-28T06:03:55;4.38;;;1.35;;
51179;SDS011;37243;49.814;8.652;2023-02-28T06:06:23;8.77;;;1.80;;
51179;SDS011;37243;49.814;8.652;2023-02-28T06:08:51;8.60;;;1.70;;
51179;SDS011;37243;49.814;8.652;2023-02-28T06:11:20;4.68;;;1.70;;
51179;SDS011;37243;49.814;8.652;2023-02-28T06:13:53;5.22;;;1.70;;
51179;SDS011;37243;49.814;8.652;2023-02-28T06:16:21;2.35;;;1.55;;
51179;SDS011;37243;49.814;8.652;2023-02-28T06:18:50;5.65;;;2.00;;
51179;SDS011;37243;49.814;8.652;2023-02-28T06:21:23;5.68;;;1.98;;
51179;SDS011;37243;49.814;8.652;2023-02-28T06:23:52;2.45;;;1.80;;
51179;SDS011;37243;49.814;8.652;2023-02-28T06:26:20;4.72;;;1.73;;
51179;SDS011;37243;49.814;8.652;2023-02-28T06:28:49;7.63;;;1.90;;
51179;SDS011;37243;49.814;8.652;2023-02-28T06:31:18;4.45;;;1.92;;
51179;SDS011;37243;49.814;8.652;2023-02-28T06:33:47;2.65;;;1.95;;
51179;SDS011;37243;49.814;8.652;2023-02-28T06:36:16;6.10;;;1.80;;
51179;SDS011;37243;49.814;8.652;2023-02-28T06:38:47;7.70;;;2.28;;
51179;SDS011;37243;49.814;8.652;2023-02-28T06:41:19;5.97;;;2.13;;
51179;SDS011;37243;49.814;8.652;2023-02-28T06:43:48;6.35;;;1.95;;
51179;SDS011;37243;49.814;8.652;2023-02-28T06:46:16;9.90;;;1.80;;
51179;SDS011;37243;49.814;8.652;2023-02-28T06:48:45;3.30;;;1.92;;
51179;SDS011;37243;49.814;8.652;2023-02-28T06:51:15;3.60;;;2.13;;
51179;SDS011;37243;49.814;8.652;2023-02-28T06:53:47;6.03;;;2.45;;
51179;SDS011;37243;49.814;8.652;2023-02-28T06:56:16;6.22;;;2.38;;
51179;SDS011;37243;49.814;8.652;2023-02-28T06:58:46;3.75;;;2.28;;
51179;SDS011;37243;49.814;8.652;2023-02-28T07:01:15;3.72;;;1.92;;
51179;SDS011;37243;49.814;8.652;2023-02-28T07:03:44;6.32;;;2.28;;
51179;SDS011;37243;49.814;8.652;2023-02-28T07:06:17;4.50;;;2.05;;
51179;SDS011;37243;49.814;8.652;2023-02-28T07:08:50;5.03;;;1.83;;
51179;SDS011;37243;49.814;8.652;2023-02-28T07:11:19;4.10;;;2.13;;
51179;SDS011;37243;49.814;8.652;2023-02-28T07:13:50;4.18;;;2.10;;
51179;SDS011;37243;49.814;8.652;2023-02-28T07:16:18;5.38;;;2.25;;
51179;SDS011;37243;49.814;8.652;2023-02-28T07:18:47;3.65;;;2.08;;
51179;SDS011;37243;49.814;8.652;2023-02-28T07:21:16;5.38;;;2.08;;
51179;SDS011;37243;49.814;8.652;2023-02-28T07:23:44;5.60;;;1.95;;
51179;SDS011;37243;49.814;8.652;2023-02-28T07:26:16;2.15;;;1.70;;
51179;SDS011;37243;49.814;8.652;2023-02-28T07:28:46;3.80;;;1.92;;
51179;SDS011;37243;49.814;8.652;2023-02-28T07:31:16;4.57;;;1.98;;
51179;SDS011;37243;49.814;8.652;2023-02-28T07:33:45;4.70;;;2.40;;
51179;SDS011;37243;49.814;8.652;2023-02-28T07:36:14;3.67;;;1.90;;
51179;SDS011;37243;49.814;8.652;2023-02-28T07:38:44;4.70;;;2.00;;
51179;SDS011;37243;49.814;8.652;2023-02-28T07:41:18;5.60;;;2.08;;
51179;SDS011;37243;49.814;8.652;2023-02-28T07:43:49;4.95;;;1.95;;
51179;SDS011;37243;49.814;8.652;2023-02-28T07:46:17;6.15;;;1.75;;
51179;SDS011;37243;49.814;8.652;2023-02-28T07:48:46;6.35;;;2.33;;
51179;SDS011;37243;49.814;8.652;2023-02-28T07:51:14;3.15;;;1.77;;
51179;SDS011;37243;49.814;8.652;2023-02-28T07:53:43;2.92;;;1.85;;
51179;SDS011;37243;49.814;8.652;2023-02-28T07:56:11;3.45;;;1.95;;
51179;SDS011;37243;49.814;8.652;2023-02-28T07:58:42;2.17;;;1.75;;
51179;SDS011;37243;49.814;8.652;2023-02-28T08:01:10;2.35;;;1.90;;
51179;SDS011;37243;49.814;8.652;2023-02-28T08:03:39;3.67;;;1.90;;
51179;SDS011;37243;49.814;8.652;2023-02-28T08:06:08;2.58;;;1.70;;
51179;SDS011;37243;49.814;8.652;2023-02-28T08:08:44;2.97;;;1.70;;
51179;SDS011;37243;49.814;8.652;2023-02-28T08:11:13;4.72;;;1.80;;
51179;SDS011;37243;49.814;8.652;2023-02-28T08:13:44;6.22;;;1.85;;
51179;SDS011;37243;49.814;8.652;2023-02-28T08:16:13;3.35;;;1.80;;
51179;SDS011;37243;49.814;8.652;2023-02-28T08:18:47;2.75;;;1.58;;
51179;SDS011;37243;49.814;8.652;2023-02-28T08:21:16;2.65;;;1.40;;
51179;SDS011;37243;49.814;8.652;2023-02-28T08:23:46;2.25;;;1.75;;
51179;SDS011;37243;49.814;8.652;2023-02-28T08:26:15;5.97;;;1.77;;
51179;SDS011;37243;49.814;8.652;2023-02-28T08:28:46;4.22;;;1.70;;
51179;SDS011;37243;49.814;8.652;2023-02-28T08:31:15;1.70;;;1.60;;
51179;SDS011;37243;49.814;8.652;2023-02-28T08:33:44;2.85;;;1.55;;
51179;SDS011;37243;49.814;8.652;2023-02-28T08:36:13;2.97;;;1.33;;
51179;SDS011;37243;49.814;8.652;2023-02-28T08:38:42;2.65;;;1.63;;
51179;SDS011;37243;49.814;8.652;2023-02-28T08:41:11;3.97;;;1.70;;
51179;SDS011;37243;49.814;8.652;2023-02-28T08:43:40;2.28;;;1.52;;
51179;SDS011;37243;49.814;8.652;2023-02-28T08:46:12;3.25;;;1.73;;
51179;SDS011;37243;49.814;8.652;2023-02-28T08:48:41;2.70;;;1.70;;
51179;SDS011;37243;49.814;8.652;2023-02-28T08:51:10;2.72;;;1.55;;
51179;SDS011;37243;49.814;8.652;2023-02-28T08:53:41;3.83;;;1.45;;
51179;SDS011;37243;49.814;8.652;2023-02-28T08:56:10;4.05;;;1.58;;
51179;SDS011;37243;49.814;8.652;2023-02-28T08:58:41;2.67;;;1.70;;
51179;SDS011;37243;49.814;8.652;2023-02-28T09:01:12;3.08;;;1.65;;
51179;SDS011;37243;49.814;8.652;2023-02-28T09:03:42;4.65;;;1.75;;
51179;SDS011;37243;49.814;8.652;2023-02-28T09:06:11;1.58;;;1.30;;
51179;SDS011;37243;49.814;8.652;2023-02-28T09:08:41;1.98;;;1.50;;
51179;SDS011;37243;49.814;8.652;2023-02-28T09:11:09;3.22;;;1.70;;
51179;SDS011;37243;49.814;8.652;2023-02-28T09:13:38;3.58;;;1.40;;
51179;SDS011;37243;49.814;8.652;2023-02-28T09:16:08;5.68;;;1.73;;
51179;SDS011;37243;49.814;8.652;2023-02-28T09:18:41;2.28;;;1.45;;
51179;SDS011;37243;49.814;8.652;2023-02-28T09:21:11;2.65;;;1.20;;
51179;SDS011;37243;49.814;8.652;2023-02-28T09:23:41;2.17;;;1.40;;
51179;SDS011;37243;49.814;8.652;2023-02-28T09:26:12;3.55;;;1.60;;
51179;SDS011;37243;49.814;8.652;2023-02-28T09:28:41;2.15;;;1.25;;
51179;SDS011;37243;49.814;8.652;2023-02-28T09:31:14;1.63;;;1.15;;
51179;SDS011;37243;49.814;8.652;2023-02-28T09:33:46;3.45;;;1.50;;
51179;SDS011;37243;49.814;8.652;2023-02-28T09:36:14;2.30;;;1.60;;
51179;SDS011;37243;49.814;8.652;2023-02-28T09:38:43;2.17;;;1.60;;
51179;SDS011;37243;49.814;8.652;2023-02-28T09:41:13;2.50;;;1.50;;
51179;SDS011;37243;49.814;8.652;2023-02-28T09:43:43;3.92;;;1.35;;
51179;SDS011;37243;49.814;8.652;2023-02-28T09:46:21;1.88;;;1.60;;
51179;SDS011;37243;49.814;8.652;2023-02-28T09:48:56;3.00;;;1.45;;
51179;SDS011;37243;49.814;8.652;2023-02-28T09:51:30;3.58;;;1.40;;
51179;SDS011;37243;49.814;8.652;2023-02-28T09:54:05;1.48;;;1.38;;
51179;SDS011;37243;49.814;8.652;2023-02-28T09:56:39;1.73;;;1.27;;
51179;SDS011;37243;49.814;8.652;2023-02-28T09:59:10;2.05;;;1.50;;
51179;SDS011;37243;49.814;8.652;2023-02-28T10:01:50;3.55;;;1.20;;
51179;SDS011;37243;49.814;8.652;2023-02-28T10:04:31;2.60;;;1.52;;
51179;SDS011;37243;49.814;8.652;2023-02-28T10:07:13;2.03;;;1.40;;
51179;SDS011;37243;49.814;8.652;2023-02-28T10:09:51;3.03;;;1.40;;
51179;SDS011;37243;49.814;8.652;2023-02-28T10:12:24;3.13;;;1.73;;
51179;SDS011;37243;49.814;8.652;2023-02-28T10:14:55;3.80;;;1.27;;
51179;SDS011;37243;49.814;8.652;2023-02-28T10:17:30;1.70;;;1.30;;
51179;SDS011;37243;49.814;8.652;2023-02-28T10:20:07;1.20;;;1.10;;
51179;SDS011;37243;49.814;8.652;2023-02-28T10:22:41;2.95;;;1.40;;
51179;SDS011;37243;49.814;8.652;2023-02-28T10:25:21;2.75;;;1.40;;
51179;SDS011;37243;49.814;8.652;2023-02-28T10:27:52;2.28;;;1.50;;
51179;SDS011;37243;49.814;8.652;2023-02-28T10:30:21;1.52;;;1.40;;
51179;SDS011;37243;49.814;8.652;2023-02-28T10:32:52;1.30;;;1.20;;
51179;SDS011;37243;49.814;8.652;2023-02-28T10:35:21;3.55;;;1.33;;
51179;SDS011;37243;49.814;8.652;2023-02-28T10:37:53;2.05;;;1.40;;
51179;SDS011;37243;49.814;8.652;2023-02-28T10:40:28;1.20;;;1.10;;
51179;SDS011;37243;49.814;8.652;2023-02-28T10:42:58;2.03;;;1.20;;
51179;SDS011;37243;49.814;8.652;2023-02-28T10:45:28;1.80;;;1.20;;
51179;SDS011;37243;49.814;8.652;2023-02-28T10:48:02;1.90;;;1.45;;
51179;SDS011;37243;49.814;8.652;2023-02-28T10:50:34;1.40;;;1.30;;
51179;SDS011;37243;49.814;8.652;2023-02-28T10:53:10;2.33;;;1.20;;
51179;SDS011;37243;49.814;8.652;2023-02-28T10:55:45;2.85;;;1.10;;
51179;SDS011;37243;49.814;8.652;2023-02-28T10:58:21;4.35;;;1.48;;
51179;SDS011;37243;49.814;8.652;2023-02-28T11:00:50;1.20;;;1.10;;
51179;SDS011;37243;49.814;8.652;2023-02-28T11:03:29;1.83;;;0.93;;
51179;SDS011;37243;49.814;8.652;2023-02-28T11:06:04;1.50;;;1.33;;
51179;SDS011;37243;49.814;8.652;2023-02-28T11:08:34;2.85;;;1.20;;
51179;SDS011;37243;49.814;8.652;2023-02-28T11:11:13;2.75;;;1.27;;
51179;SDS011;37243;49.814;8.652;2023-02-28T11:13:42;1.27;;;1.17;;
51179;SDS011;37243;49.814;8.652;2023-02-28T11:16:12;1.33;;;1.15;;
51179;SDS011;37243;49.814;8.652;2023-02-28T11:18:46;1.80;;;1.25;;
51179;SDS011;37243;49.814;8.652;2023-02-28T11:21:19;2.13;;;1.17;;
51179;SDS011;37243;49.814;8.652;2023-02-28T11:23:52;1.42;;;1.20;;
51179;SDS011;37243;49.814;8.652;2023-02-28T11:26:38;1.35;;;1.25;;
51179;SDS011;37243;49.814;8.652;2023-02-28T11:29:10;1.55;;;1.45;;
51179;SDS011;37243;49.814;8.652;2023-02-28T11:31:40;1.75;;;1.50;;
51179;SDS011;37243;49.814;8.652;2023-02-28T11:34:26;2.13;;;1.30;;
51179;SDS011;37243;49.814;8.652;2023-02-28T11:36:57;1.30;;;1.20;;
51179;SDS011;37243;49.814;8.652;2023-02-28T11:39:32;2.17;;;1.05;;
51179;SDS011;37243;49.814;8.652;2023-02-28T11:42:11;3.17;;;1.38;;
51179;SDS011;37243;49.814;8.652;2023-02-28T11:45:02;1.90;;;1.35;;
51179;SDS011;37243;49.814;8.652;2023-02-28T11:47:47;1.40;;;1.30;;
51179;SDS011;37243;49.814;8.652;2023-02-28T11:53:22;2.60;;;1.40;;
51179;SDS011;37243;49.814;8.652;2023-02-28T11:56:02;1.70;;;1.33;;
51179;SDS011;37243;49.814;8.652;2023-02-28T11:58:39;1.23;;;1.13;;
51179;SDS011;37243;49.814;8.652;2023-02-28T12:04:11;2.70;;;1.30;;
51179;SDS011;37243;49.814;8.652;2023-02-28T12:06:52;1.25;;;1.15;;
51179;SDS011;37243;49.814;8.652;2023-02-28T12:09:34;1.65;;;1.40;;
51179;SDS011;37243;49.814;8.652;2023-02-28T12:12:19;1.38;;;1.13;;
51179;SDS011;37243;49.814;8.652;2023-02-28T12:15:02;2.28;;;1.33;;
51179;SDS011;37243;49.814;8.652;2023-02-28T12:17:46;1.70;;;1.20;;
51179;SDS011;37243;49.814;8.652;2023-02-28T12:20:25;1.40;;;1.40;;
51179;SDS011;37243;49.814;8.652;2023-02-28T12:23:09;1.90;;;1.05;;
51179;SDS011;37243;49.814;8.652;2023-02-28T12:25:49;2.30;;;1.27;;
51179;SDS011;37243;49.814;8.652;2023-02-28T12:28:25;1.50;;;1.40;;
51179;SDS011;37243;49.814;8.652;2023-02-28T12:30:58;1.58;;;1.30;;
51179;SDS011;37243;49.814;8.652;2023-02-28T12:33:32;2.78;;;1.42;;
51179;SDS011;37243;49.814;8.652;2023-02-28T12:36:03;1.85;;;1.20;;
51179;SDS011;37243;49.814;8.652;2023-02-28T12:38:41;1.35;;;1.10;;
51179;SDS011;37243;49.814;8.652;2023-02-28T12:41:13;1.83;;;1.17;;
51179;SDS011;37243;49.814;8.652;2023-02-28T12:43:45;2.47;;;1.30;;
51179;SDS011;37243;49.814;8.652;2023-02-28T12:46:17;1.83;;;1.25;;
51179;SDS011;37243;49.814;8.652;2023-02-28T12:48:52;2.30;;;1.23;;
51179;SDS011;37243;49.814;8.652;2023-02-28T12:51:23;1.00;;;0.90;;
51179;SDS011;37243;49.814;8.652;2023-02-28T12:53:57;1.40;;;1.30;;
51179;SDS011;37243;49.814;8.652;2023-02-28T12:56:38;1.27;;;1.17;;
51179;SDS011;37243;49.814;8.652;2023-02-28T12:59:13;1.42;;;1.30;;
51179;SDS011;37243;49.814;8.652;2023-02-28T13:01:54;5.05;;;1.42;;
51179;SDS011;37243;49.814;8.652;2023-02-28T13:04:32;1.10;;;1.00;;
51179;SDS011;37243;49.814;8.652;2023-02-28T13:07:19;1.20;;;1.20;;
51179;SDS011;37243;49.814;8.652;2023-02-28T13:10:11;1.40;;;1.23;;
51179;SDS011;37243;49.814;8.652;2023-02-28T13:12:46;1.20;;;1.10;;
51179;SDS011;37243;49.814;8.652;2023-02-28T13:15:17;3.60;;;1.48;;
51179;SDS011;37243;49.814;8.652;2023-02-28T13:17:50;1.10;;;1.10;;
51179;SDS011;37243;49.814;8.652;2023-02-28T13:20:21;1.58;;;1.15;;
51179;SDS011;37243;49.814;8.652;2023-02-28T13:22:51;1.23;;;1.00;;
51179;SDS011;37243;49.814;8.652;2023-02-28T13:34:42;1.50;;;1.23;;
51179;SDS011;37243;49.814;8.652;2023-02-28T13:37:36;1.17;;;1.08;;
51179;SDS011;37243;49.814;8.652;2023-02-28T13:43:01;1.73;;;1.33;;
51179;SDS011;37243;49.814;8.652;2023-02-28T13:45:31;1.20;;;1.10;;
51179;SDS011;37243;49.814;8.652;2023-02-28T13:48:03;1.40;;;1.30;;
51179;SDS011;37243;49.814;8.652;2023-02-28T13:50:44;1.33;;;1.30;;
51179;SDS011;37243;49.814;8.652;2023-02-28T13:56:19;1.33;;;1.23;;
51179;SDS011;37243;49.814;8.652;2023-02-28T13:59:05;1.10;;;1.10;;
51179;SDS011;37243;49.814;8.652;2023-02-28T14:01:45;1.33;;;1.23;;
51179;SDS011;37243;49.814;8.652;2023-02-28T14:07:25;2.92;;;1.45;;
51179;SDS011;37243;49.814;8.652;2023-02-28T14:09:57;1.13;;;1.05;;
51179;SDS011;37243;49.814;8.652;2023-02-28T14:15:36;1.20;;;1.20;;
51179;SDS011;37243;49.814;8.652;2023-02-28T14:18:22;1.42;;;1.33;;
51179;SDS011;37243;49.814;8.652;2023-02-28T14:20:55;1.70;;;1.60;;
51179;SDS011;37243;49.814;8.652;2023-02-28T14:29:36;1.90;;;1.20;;
51179;SDS011;37243;49.814;8.652;2023-02-28T14:32:21;1.50;;;1.10;;
51179;SDS011;37243;49.814;8.652;2023-02-28T14:34:57;2.70;;;1.42;;
51179;SDS011;37243;49.814;8.652;2023-02-28T14:37:33;1.38;;;1.33;;
51179;SDS011;37243;49.814;8.652;2023-02-28T14:40:13;1.55;;;1.27;;
51179;SDS011;37243;49.814;8.652;2023-02-28T14:42:46;1.08;;;0.98;;
51179;SDS011;37243;49.814;8.652;2023-02-28T14:45:19;1.25;;;1.15;;
51179;SDS011;37243;49.814;8.652;2023-02-28T14:47:48;1.02;;;1.02;;
51179;SDS011;37243;49.814;8.652;2023-02-28T14:50:19;2.58;;;1.30;;
51179;SDS011;37243;49.814;8.652;2023-02-28T14:52:51;2.60;;;1.05;;
51179;SDS011;37243;49.814;8.652;2023-02-28T14:55:24;1.65;;;1.30;;
51179;SDS011;37243;49.814;8.652;2023-02-28T14:57:55;2.15;;;1.30;;
51179;SDS011;37243;49.814;8.652;2023-02-28T15:00:25;2.63;;;1.33;;
51179;SDS011;37243;49.814;8.652;2023-02-28T15:02:58;2.13;;;1.30;;
51179;SDS011;37243;49.814;8.652;2023-02-28T15:05:28;3.45;;;1.70;;
51179;SDS011;37243;49.814;8.652;2023-02-28T15:08:01;1.45;;;1.20;;
51179;SDS011;37243;49.814;8.652;2023-02-28T15:10:34;4.55;;;1.42;;
51179;SDS011;37243;49.814;8.652;2023-02-28T15:13:05;4.63;;;1.52;;
51179;SDS011;37243;49.814;8.652;2023-02-28T15:15:42;1.90;;;1.30;;
51179;SDS011;37243;49.814;8.652;2023-02-28T15:18:15;1.80;;;1.38;;
51179;SDS011;37243;49.814;8.652;2023-02-28T15:20:50;3.05;;;1.40;;
51179;SDS011;37243;49.814;8.652;2023-02-28T15:23:19;2.78;;;1.30;;
51179;SDS011;37243;49.814;8.652;2023-02-28T15:25:52;1.08;;;0.98;;
51179;SDS011;37243;49.814;8.652;2023-02-28T15:28:22;3.75;;;1.50;;
51179;SDS011;37243;49.814;8.652;2023-02-28T15:30:53;1.58;;;1.30;;
51179;SDS011;37243;49.814;8.652;2023-02-28T15:33:24;1.42;;;1.33;;
51179;SDS011;37243;49.814;8.652;2023-02-28T15:36:04;1.10;;;1.10;;
51179;SDS011;37243;49.814;8.652;2023-02-28T15:38:34;1.50;;;1.40;;
51179;SDS011;37243;49.814;8.652;2023-02-28T15:41:16;1.13;;;1.10;;
51179;SDS011;37243;49.814;8.652;2023-02-28T15:46:54;1.40;;;1.30;;
51179;SDS011;37243;49.814;8.652;2023-02-28T15:49:24;4.68;;;1.33;;
51179;SDS011;37243;49.814;8.652;2023-02-28T15:51:53;1.95;;;1.33;;
51179;SDS011;37243;49.814;8.652;2023-02-28T15:54:27;3.05;;;1.50;;
51179;SDS011;37243;49.814;8.652;2023-02-28T15:57:00;1.63;;;1.33;;
51179;SDS011;37243;49.814;8.652;2023-02-28T15:59:33;1.25;;;1.13;;
51179;SDS011;37243;49.814;8.652;2023-02-28T16:02:14;1.48;;;1.25;;